sensor_id;sensor_type;location;lat;lon;timestamp;pressure;altitude;pressure_sealevel;temperature;humidity
10606;BME280;5350;42.698;23.148;2022-10-16T00:00:08;94284.19;;;6.75;100.00
10606;BME280;5350;42.698;23.148;2022-10-16T00:02:35;94284.19;;;6.75;100.00
10606;BME280;5350;42.698;23.148;2022-10-16T00:05:01;94289.94;;;6.77;100.00
10606;BME280;5350;42.698;23.148;2022-10-16T00:07:29;94294.13;;;6.78;100.00
10606;BME280;5350;42.698;23.148;2022-10-16T00:09:55;94293.91;;;6.80;100.00
10606;BME280;5350;42.698;23.148;2022-10-16T00:12:22;94297.25;;;6.75;100.00
10606;BME280;5350;42.698;23.148;2022-10-16T00:14:48;94289.94;;;6.77;100.00
10606;BME280;5350;42.698;23.148;2022-10-16T00:17:15;94297.88;;;6.87;100.00
10606;BME280;5350;42.698;23.148;2022-10-16T00:19:41;94302.03;;;6.83;100.00
10606;BME280;5350;42.698;23.148;2022-10-16T00:22:07;94302.31;;;6.87;100.00
10606;BME280;5350;42.698;23.148;2022-10-16T00:24:35;94304.28;;;6.75;100.00
10606;BME280;5350;42.698;23.148;2022-10-16T00:27:02;94300.13;;;6.74;100.00
10606;BME280;5350;42.698;23.148;2022-10-16T00:29:29;94303.59;;;6.84;100.00
10606;BME280;5350;42.698;23.148;2022-10-16T00:31:55;94265.13;;;6.48;100.00
10606;BME280;5350;42.698;23.148;2022-10-16T00:34:22;94301.88;;;6.68;100.00
10606;BME280;5350;42.698;23.148;2022-10-16T00:36:48;94302.50;;;6.80;100.00
10606;BME280;5350;42.698;23.148;2022-10-16T00:39:14;94296.41;;;6.70;100.00
10606;BME280;5350;42.698;23.148;2022-10-16T00:41:42;94292.47;;;6.67;100.00
10606;BME280;5350;42.698;23.148;2022-10-16T00:46:54;94293.41;;;6.56;100.00
10606;BME280;5350;42.698;23.148;2022-10-16T00:49:20;94295.50;;;6.54;100.00
10606;BME280;5350;42.698;23.148;2022-10-16T00:51:47;94298.00;;;6.71;100.00
10606;BME280;5350;42.698;23.148;2022-10-16T00:54:16;94298.19;;;6.64;100.00
10606;BME280;5350;42.698;23.148;2022-10-16T00:56:45;94297.59;;;6.57;100.00
10606;BME280;5350;42.698;23.148;2022-10-16T00:59:14;94287.59;;;6.49;100.00
10606;BME280;5350;42.698;23.148;2022-10-16T01:01:41;94298.28;;;6.47;100.00
10606;BME280;5350;42.698;23.148;2022-10-16T01:04:08;94296.03;;;6.56;100.00
10606;BME280;5350;42.698;23.148;2022-10-16T01:06:36;94299.78;;;6.65;100.00
10606;BME280;5350;42.698;23.148;2022-10-16T01:09:11;94314.88;;;6.58;100.00
10606;BME280;5350;42.698;23.148;2022-10-16T01:11:39;94303.88;;;6.56;100.00
10606;BME280;5350;42.698;23.148;2022-10-16T01:14:11;94299.09;;;6.48;100.00
10606;BME280;5350;42.698;23.148;2022-10-16T01:16:42;94302.25;;;6.50;100.00
10606;BME280;5350;42.698;23.148;2022-10-16T01:19:12;94306.47;;;6.56;100.00
10606;BME280;5350;42.698;23.148;2022-10-16T01:21:41;94299.63;;;6.50;100.00
10606;BME280;5350;42.698;23.148;2022-10-16T01:24:11;94295.13;;;6.45;100.00
10606;BME280;5350;42.698;23.148;2022-10-16T01:29:23;94282.81;;;6.41;100.00
10606;BME280;5350;42.698;23.148;2022-10-16T01:31:53;94287.78;;;6.42;100.00
10606;BME280;5350;42.698;23.148;2022-10-16T01:34:22;94286.47;;;6.40;100.00
10606;BME280;5350;42.698;23.148;2022-10-16T01:36:51;94283.84;;;6.40;100.00
10606;BME280;5350;42.698;23.148;2022-10-16T01:39:20;94290.38;;;6.37;100.00
10606;BME280;5350;42.698;23.148;2022-10-16T01:41:48;94298.44;;;6.36;100.00
10606;BME280;5350;42.698;23.148;2022-10-16T01:44:16;94293.25;;;6.41;100.00
10606;BME280;5350;42.698;23.148;2022-10-16T01:46:46;94306.16;;;6.26;100.00
10606;BME280;5350;42.698;23.148;2022-10-16T01:49:14;94312.19;;;6.26;100.00
10606;BME280;5350;42.698;23.148;2022-10-16T01:51:42;94305.84;;;6.17;100.00
10606;BME280;5350;42.698;23.148;2022-10-16T01:54:11;94310.31;;;6.22;100.00
10606;BME280;5350;42.698;23.148;2022-10-16T01:56:40;94313.09;;;6.37;100.00
10606;BME280;5350;42.698;23.148;2022-10-16T01:59:09;94308.09;;;6.35;100.00
10606;BME280;5350;42.698;23.148;2022-10-16T02:01:37;94316.03;;;6.19;100.00
10606;BME280;5350;42.698;23.148;2022-10-16T02:04:07;94270.13;;;5.80;100.00
10606;BME280;5350;42.698;23.148;2022-10-16T02:06:35;94315.25;;;6.18;100.00
10606;BME280;5350;42.698;23.148;2022-10-16T02:09:02;94317.00;;;6.13;100.00
10606;BME280;5350;42.698;23.148;2022-10-16T02:11:28;94320.66;;;6.12;100.00
10606;BME280;5350;42.698;23.148;2022-10-16T02:13:57;94324.59;;;6.14;100.00
10606;BME280;5350;42.698;23.148;2022-10-16T02:16:32;94332.97;;;6.16;100.00
10606;BME280;5350;42.698;23.148;2022-10-16T02:18:58;94326.97;;;6.16;100.00
10606;BME280;5350;42.698;23.148;2022-10-16T02:21:28;94329.53;;;6.11;100.00
10606;BME280;5350;42.698;23.148;2022-10-16T02:23:57;94334.59;;;6.01;100.00
10606;BME280;5350;42.698;23.148;2022-10-16T02:26:27;94333.41;;;6.08;100.00
10606;BME280;5350;42.698;23.148;2022-10-16T02:28:57;94329.28;;;6.12;100.00
10606;BME280;5350;42.698;23.148;2022-10-16T02:31:27;94337.38;;;6.11;100.00
10606;BME280;5350;42.698;23.148;2022-10-16T02:33:54;94327.03;;;5.99;100.00
10606;BME280;5350;42.698;23.148;2022-10-16T02:36:22;94331.41;;;5.94;100.00
10606;BME280;5350;42.698;23.148;2022-10-16T02:38:50;94331.41;;;5.94;100.00
10606;BME280;5350;42.698;23.148;2022-10-16T02:41:17;94340.50;;;5.91;100.00
10606;BME280;5350;42.698;23.148;2022-10-16T02:43:44;94340.34;;;5.98;100.00
10606;BME280;5350;42.698;23.148;2022-10-16T02:46:11;94343.19;;;5.96;100.00
10606;BME280;5350;42.698;23.148;2022-10-16T02:48:37;94349.13;;;5.92;100.00
10606;BME280;5350;42.698;23.148;2022-10-16T02:51:04;94346.72;;;5.85;100.00
10606;BME280;5350;42.698;23.148;2022-10-16T02:53:31;94348.66;;;5.78;100.00
10606;BME280;5350;42.698;23.148;2022-10-16T02:55:58;94353.75;;;5.85;100.00
10606;BME280;5350;42.698;23.148;2022-10-16T02:58:25;94354.94;;;5.77;100.00
10606;BME280;5350;42.698;23.148;2022-10-16T03:00:51;94346.41;;;5.65;100.00
10606;BME280;5350;42.698;23.148;2022-10-16T03:03:18;94352.94;;;5.84;100.00
10606;BME280;5350;42.698;23.148;2022-10-16T03:05:44;94348.03;;;5.88;100.00
10606;BME280;5350;42.698;23.148;2022-10-16T03:08:11;94352.72;;;5.86;100.00
10606;BME280;5350;42.698;23.148;2022-10-16T03:10:38;94350.66;;;5.71;100.00
10606;BME280;5350;42.698;23.148;2022-10-16T03:13:06;94350.34;;;5.67;100.00
10606;BME280;5350;42.698;23.148;2022-10-16T03:15:32;94349.75;;;5.60;100.00
10606;BME280;5350;42.698;23.148;2022-10-16T03:17:59;94353.44;;;5.64;100.00
10606;BME280;5350;42.698;23.148;2022-10-16T03:20:26;94349.25;;;5.63;100.00
10606;BME280;5350;42.698;23.148;2022-10-16T03:22:52;94350.03;;;5.64;100.00
10606;BME280;5350;42.698;23.148;2022-10-16T03:25:19;94356.38;;;5.68;100.00
10606;BME280;5350;42.698;23.148;2022-10-16T03:27:45;94354.06;;;5.72;100.00
10606;BME280;5350;42.698;23.148;2022-10-16T03:30:13;94363.00;;;5.76;100.00
10606;BME280;5350;42.698;23.148;2022-10-16T03:32:40;94368.69;;;5.89;100.00
10606;BME280;5350;42.698;23.148;2022-10-16T03:35:07;94372.16;;;5.78;100.00
10606;BME280;5350;42.698;23.148;2022-10-16T03:37:33;94363.91;;;5.64;100.00
10606;BME280;5350;42.698;23.148;2022-10-16T03:40:00;94365.53;;;5.71;100.00
10606;BME280;5350;42.698;23.148;2022-10-16T03:42:26;94362.00;;;5.60;100.00
10606;BME280;5350;42.698;23.148;2022-10-16T03:44:53;94363.25;;;5.57;100.00
10606;BME280;5350;42.698;23.148;2022-10-16T03:47:21;94367.47;;;5.58;100.00
10606;BME280;5350;42.698;23.148;2022-10-16T03:49:48;94365.31;;;5.55;100.00
10606;BME280;5350;42.698;23.148;2022-10-16T03:52:15;94358.63;;;5.43;100.00
10606;BME280;5350;42.698;23.148;2022-10-16T03:54:42;94380.75;;;5.40;100.00
10606;BME280;5350;42.698;23.148;2022-10-16T03:57:08;94366.78;;;5.46;100.00
10606;BME280;5350;42.698;23.148;2022-10-16T03:59:35;94362.09;;;5.48;100.00
10606;BME280;5350;42.698;23.148;2022-10-16T04:02:01;94363.44;;;5.51;100.00
10606;BME280;5350;42.698;23.148;2022-10-16T04:04:29;94362.44;;;5.35;100.00
10606;BME280;5350;42.698;23.148;2022-10-16T04:06:55;94359.81;;;5.35;100.00
10606;BME280;5350;42.698;23.148;2022-10-16T04:09:22;94355.97;;;5.21;100.00
10606;BME280;5350;42.698;23.148;2022-10-16T04:11:48;94355.78;;;5.28;100.00
10606;BME280;5350;42.698;23.148;2022-10-16T04:14:15;94354.59;;;5.35;100.00
10606;BME280;5350;42.698;23.148;2022-10-16T04:16:41;94355.16;;;5.37;100.00
10606;BME280;5350;42.698;23.148;2022-10-16T04:19:08;94358.78;;;5.36;100.00
10606;BME280;5350;42.698;23.148;2022-10-16T04:21:36;94365.59;;;5.37;100.00
10606;BME280;5350;42.698;23.148;2022-10-16T04:24:03;94364.81;;;5.20;100.00
10606;BME280;5350;42.698;23.148;2022-10-16T04:26:29;94366.41;;;5.21;100.00
10606;BME280;5350;42.698;23.148;2022-10-16T04:28:56;94368.44;;;5.19;100.00
10606;BME280;5350;42.698;23.148;2022-10-16T04:31:22;94366.00;;;5.13;100.00
10606;BME280;5350;42.698;23.148;2022-10-16T04:33:49;94365.75;;;5.14;100.00
10606;BME280;5350;42.698;23.148;2022-10-16T04:36:15;94367.81;;;5.12;100.00
10606;BME280;5350;42.698;23.148;2022-10-16T04:38:43;94371.97;;;5.13;100.00
10606;BME280;5350;42.698;23.148;2022-10-16T04:41:10;94376.34;;;5.24;100.00
10606;BME280;5350;42.698;23.148;2022-10-16T04:43:36;94369.56;;;5.23;100.00
10606;BME280;5350;42.698;23.148;2022-10-16T04:46:03;94370.97;;;5.14;100.00
10606;BME280;5350;42.698;23.148;2022-10-16T04:48:29;94375.72;;;5.17;100.00
10606;BME280;5350;42.698;23.148;2022-10-16T04:50:56;94384.97;;;5.25;100.00
10606;BME280;5350;42.698;23.148;2022-10-16T04:53:22;94389.88;;;5.21;100.00
10606;BME280;5350;42.698;23.148;2022-10-16T04:55:50;94380.44;;;5.20;100.00
10606;BME280;5350;42.698;23.148;2022-10-16T04:58:17;94387.56;;;5.41;100.00
10606;BME280;5350;42.698;23.148;2022-10-16T05:00:44;94391.56;;;5.49;100.00
10606;BME280;5350;42.698;23.148;2022-10-16T05:03:11;94394.19;;;5.32;100.00
10606;BME280;5350;42.698;23.148;2022-10-16T05:05:41;94398.81;;;5.25;100.00
10606;BME280;5350;42.698;23.148;2022-10-16T05:08:08;94400.84;;;5.23;100.00
10606;BME280;5350;42.698;23.148;2022-10-16T05:10:34;94398.00;;;5.25;100.00
10606;BME280;5350;42.698;23.148;2022-10-16T05:13:02;94394.19;;;5.32;100.00
10606;BME280;5350;42.698;23.148;2022-10-16T05:15:29;94401.47;;;5.30;100.00
10606;BME280;5350;42.698;23.148;2022-10-16T05:17:56;94401.47;;;5.30;100.00
10606;BME280;5350;42.698;23.148;2022-10-16T05:20:22;94406.78;;;5.35;100.00
10606;BME280;5350;42.698;23.148;2022-10-16T05:22:49;94396.91;;;5.37;100.00
10606;BME280;5350;42.698;23.148;2022-10-16T05:25:16;94408.53;;;5.46;100.00
10606;BME280;5350;42.698;23.148;2022-10-16T05:27:42;94413.34;;;5.54;100.00
10606;BME280;5350;42.698;23.148;2022-10-16T05:30:10;94405.09;;;5.62;100.00
10606;BME280;5350;42.698;23.148;2022-10-16T05:32:37;94410.16;;;5.69;100.00
10606;BME280;5350;42.698;23.148;2022-10-16T05:35:03;94424.63;;;5.77;100.00
10606;BME280;5350;42.698;23.148;2022-10-16T05:37:30;94422.56;;;5.79;100.00
10606;BME280;5350;42.698;23.148;2022-10-16T05:39:56;94429.78;;;5.88;100.00
10606;BME280;5350;42.698;23.148;2022-10-16T05:42:23;94421.75;;;5.95;100.00
10606;BME280;5350;42.698;23.148;2022-10-16T05:44:49;94425.28;;;6.05;100.00
10606;BME280;5350;42.698;23.148;2022-10-16T05:47:17;94425.94;;;6.12;100.00
10606;BME280;5350;42.698;23.148;2022-10-16T05:49:46;94430.00;;;6.25;100.00
10606;BME280;5350;42.698;23.148;2022-10-16T05:52:12;94429.56;;;6.33;100.00
10606;BME280;5350;42.698;23.148;2022-10-16T05:54:38;94432.25;;;6.38;100.00
10606;BME280;5350;42.698;23.148;2022-10-16T05:57:05;94435.78;;;6.49;100.00
10606;BME280;5350;42.698;23.148;2022-10-16T05:59:31;94440.25;;;6.53;100.00
10606;BME280;5350;42.698;23.148;2022-10-16T06:01:58;94447.94;;;6.60;100.00
10606;BME280;5350;42.698;23.148;2022-10-16T06:04:26;94393.06;;;6.38;100.00
10606;BME280;5350;42.698;23.148;2022-10-16T06:06:52;94457.75;;;6.74;100.00
10606;BME280;5350;42.698;23.148;2022-10-16T06:09:19;94451.63;;;6.85;100.00
10606;BME280;5350;42.698;23.148;2022-10-16T06:11:45;94455.13;;;6.96;100.00
10606;BME280;5350;42.698;23.148;2022-10-16T06:14:11;94456.75;;;7.02;100.00
10606;BME280;5350;42.698;23.148;2022-10-16T06:16:38;94466.25;;;7.08;100.00
10606;BME280;5350;42.698;23.148;2022-10-16T06:19:04;94468.41;;;7.16;100.00
10606;BME280;5350;42.698;23.148;2022-10-16T06:21:34;94464.59;;;7.28;100.00
10606;BME280;5350;42.698;23.148;2022-10-16T06:24:01;94464.47;;;7.40;100.00
10606;BME280;5350;42.698;23.148;2022-10-16T06:26:28;94476.03;;;7.49;100.00
10606;BME280;5350;42.698;23.148;2022-10-16T06:28:54;94473.22;;;7.56;100.00
10606;BME280;5350;42.698;23.148;2022-10-16T06:31:22;94471.19;;;7.63;100.00
10606;BME280;5350;42.698;23.148;2022-10-16T06:33:52;94477.00;;;7.70;100.00
10606;BME280;5350;42.698;23.148;2022-10-16T06:36:19;94483.88;;;7.76;100.00
10606;BME280;5350;42.698;23.148;2022-10-16T06:38:47;94483.41;;;7.84;100.00
10606;BME280;5350;42.698;23.148;2022-10-16T06:41:14;94485.03;;;7.90;100.00
10606;BME280;5350;42.698;23.148;2022-10-16T06:43:41;94501.88;;;8.04;100.00
10606;BME280;5350;42.698;23.148;2022-10-16T06:46:09;94490.91;;;8.07;100.00
10606;BME280;5350;42.698;23.148;2022-10-16T06:48:36;94499.31;;;8.09;100.00
10606;BME280;5350;42.698;23.148;2022-10-16T06:51:04;94494.63;;;8.16;100.00
10606;BME280;5350;42.698;23.148;2022-10-16T06:53:31;94493.69;;;8.27;100.00
10606;BME280;5350;42.698;23.148;2022-10-16T06:56:07;94503.69;;;8.35;100.00
10606;BME280;5350;42.698;23.148;2022-10-16T06:58:34;94506.38;;;8.45;100.00
10606;BME280;5350;42.698;23.148;2022-10-16T07:01:00;94503.53;;;8.52;100.00
10606;BME280;5350;42.698;23.148;2022-10-16T07:03:27;94508.31;;;8.65;100.00
10606;BME280;5350;42.698;23.148;2022-10-16T07:05:53;94517.81;;;8.81;100.00
10606;BME280;5350;42.698;23.148;2022-10-16T07:08:20;94516.03;;;8.92;100.00
10606;BME280;5350;42.698;23.148;2022-10-16T07:10:46;94518.47;;;9.03;100.00
10606;BME280;5350;42.698;23.148;2022-10-16T07:13:14;94519.25;;;9.14;100.00
10606;BME280;5350;42.698;23.148;2022-10-16T07:15:40;94530.34;;;9.26;100.00
10606;BME280;5350;42.698;23.148;2022-10-16T07:18:07;94536.66;;;9.40;100.00
10606;BME280;5350;42.698;23.148;2022-10-16T07:20:33;94529.06;;;9.53;100.00
10606;BME280;5350;42.698;23.148;2022-10-16T07:23:00;94523.03;;;9.68;100.00
10606;BME280;5350;42.698;23.148;2022-10-16T07:25:26;94528.59;;;9.82;100.00
10606;BME280;5350;42.698;23.148;2022-10-16T07:27:53;94525.16;;;9.91;100.00
10606;BME280;5350;42.698;23.148;2022-10-16T07:30:22;94519.66;;;10.08;100.00
10606;BME280;5350;42.698;23.148;2022-10-16T07:32:49;94524.69;;;10.19;100.00
10606;BME280;5350;42.698;23.148;2022-10-16T07:35:15;94529.41;;;10.32;100.00
10606;BME280;5350;42.698;23.148;2022-10-16T07:37:43;94532.81;;;10.38;100.00
10606;BME280;5350;42.698;23.148;2022-10-16T07:40:10;94533.84;;;10.52;100.00
10606;BME280;5350;42.698;23.148;2022-10-16T07:42:36;94535.91;;;10.60;100.00
10606;BME280;5350;42.698;23.148;2022-10-16T07:45:03;94541.69;;;10.77;100.00
10606;BME280;5350;42.698;23.148;2022-10-16T07:47:31;94541.91;;;10.91;100.00
10606;BME280;5350;42.698;23.148;2022-10-16T07:49:58;94545.03;;;11.03;100.00
10606;BME280;5350;42.698;23.148;2022-10-16T07:52:24;94550.19;;;11.23;100.00
10606;BME280;5350;42.698;23.148;2022-10-16T07:54:50;94548.03;;;11.35;100.00
10606;BME280;5350;42.698;23.148;2022-10-16T07:57:17;94549.56;;;11.51;100.00
10606;BME280;5350;42.698;23.148;2022-10-16T07:59:44;94554.44;;;11.73;100.00
10606;BME280;5350;42.698;23.148;2022-10-16T08:02:11;94476.88;;;11.45;100.00
10606;BME280;5350;42.698;23.148;2022-10-16T08:04:39;94554.50;;;12.07;100.00
10606;BME280;5350;42.698;23.148;2022-10-16T08:28:13;94590.34;;;24.32;61.54
10606;BME280;5350;42.698;23.148;2022-10-16T08:30:40;94592.31;;;24.00;61.41
10606;BME280;5350;42.698;23.148;2022-10-16T08:33:08;94583.66;;;24.07;61.04
10606;BME280;5350;42.698;23.148;2022-10-16T08:35:35;94589.09;;;24.10;59.71
10606;BME280;5350;42.698;23.148;2022-10-16T08:38:03;94586.78;;;24.09;59.35
10606;BME280;5350;42.698;23.148;2022-10-16T08:40:31;94590.25;;;24.09;58.74
10606;BME280;5350;42.698;23.148;2022-10-16T08:43:17;94598.63;;;24.23;57.98
10606;BME280;5350;42.698;23.148;2022-10-16T08:48:17;94592.66;;;24.49;51.74
10606;BME280;5350;42.698;23.148;2022-10-16T09:05:55;94538.50;;;18.79;57.62
10606;BME280;5350;42.698;23.148;2022-10-16T09:08:29;94533.06;;;18.42;55.05
10606;BME280;5350;42.698;23.148;2022-10-16T09:11:00;94536.50;;;17.99;55.32
10606;BME280;5350;42.698;23.148;2022-10-16T09:13:36;94533.16;;;17.51;52.16
10606;BME280;5350;42.698;23.148;2022-10-16T09:16:14;94544.31;;;17.22;49.16
10606;BME280;5350;42.698;23.148;2022-10-16T09:18:50;94531.09;;;17.09;53.62
10606;BME280;5350;42.698;23.148;2022-10-16T09:21:23;94527.22;;;17.06;55.97
10606;BME280;5350;42.698;23.148;2022-10-16T09:23:51;94528.41;;;16.92;52.51
10606;BME280;5350;42.698;23.148;2022-10-16T09:26:20;94528.91;;;16.71;54.07
10606;BME280;5350;42.698;23.148;2022-10-16T09:28:47;94529.88;;;16.75;57.11
10606;BME280;5350;42.698;23.148;2022-10-16T09:31:18;94505.91;;;16.67;53.68
10606;BME280;5350;42.698;23.148;2022-10-16T09:33:50;94509.03;;;16.60;55.17
10606;BME280;5350;42.698;23.148;2022-10-16T09:36:21;94544.06;;;16.71;52.37
10606;BME280;5350;42.698;23.148;2022-10-16T09:38:50;94535.97;;;16.76;54.33
10606;BME280;5350;42.698;23.148;2022-10-16T09:41:27;94532.66;;;17.01;56.82
10606;BME280;5350;42.698;23.148;2022-10-16T09:43:56;94531.88;;;17.01;50.56
10606;BME280;5350;42.698;23.148;2022-10-16T09:46:28;94529.16;;;16.92;52.15
10606;BME280;5350;42.698;23.148;2022-10-16T09:48:57;94529.69;;;17.03;49.21
10606;BME280;5350;42.698;23.148;2022-10-16T09:51:28;94528.50;;;17.17;52.56
10606;BME280;5350;42.698;23.148;2022-10-16T09:53:57;94525.00;;;17.47;53.70
10606;BME280;5350;42.698;23.148;2022-10-16T09:56:26;94526.38;;;17.45;52.22
10606;BME280;5350;42.698;23.148;2022-10-16T09:58:55;94519.09;;;17.59;53.71
10606;BME280;5350;42.698;23.148;2022-10-16T10:01:26;94518.34;;;17.84;51.55
10606;BME280;5350;42.698;23.148;2022-10-16T10:03:56;94521.47;;;17.86;52.30
10606;BME280;5350;42.698;23.148;2022-10-16T10:06:31;94520.41;;;17.96;51.30
10606;BME280;5350;42.698;23.148;2022-10-16T10:09:04;94516.31;;;18.24;47.08
10606;BME280;5350;42.698;23.148;2022-10-16T10:11:43;94498.00;;;18.22;47.92
10606;BME280;5350;42.698;23.148;2022-10-16T10:14:22;94517.41;;;18.49;46.62
10606;BME280;5350;42.698;23.148;2022-10-16T10:16:50;94515.97;;;18.43;45.94
10606;BME280;5350;42.698;23.148;2022-10-16T10:19:20;94520.81;;;18.75;48.17
10606;BME280;5350;42.698;23.148;2022-10-16T10:21:48;94517.41;;;19.03;44.85
10606;BME280;5350;42.698;23.148;2022-10-16T10:24:17;94516.25;;;19.13;44.95
10606;BME280;5350;42.698;23.148;2022-10-16T10:26:50;94508.16;;;19.01;46.33
10606;BME280;5350;42.698;23.148;2022-10-16T10:29:26;94507.47;;;19.21;46.47
10606;BME280;5350;42.698;23.148;2022-10-16T10:32:02;94495.97;;;19.38;42.42
10606;BME280;5350;42.698;23.148;2022-10-16T10:34:42;94491.75;;;19.57;44.28
10606;BME280;5350;42.698;23.148;2022-10-16T10:37:26;94484.81;;;19.65;42.27
10606;BME280;5350;42.698;23.148;2022-10-16T10:40:02;94486.34;;;19.66;44.30
10606;BME280;5350;42.698;23.148;2022-10-16T10:42:36;94488.69;;;19.88;40.60
10606;BME280;5350;42.698;23.148;2022-10-16T10:45:18;94481.47;;;19.88;41.52
10606;BME280;5350;42.698;23.148;2022-10-16T10:48:03;94475.09;;;20.02;39.59
10606;BME280;5350;42.698;23.148;2022-10-16T10:50:39;94477.50;;;19.94;42.09
10606;BME280;5350;42.698;23.148;2022-10-16T10:53:18;94480.44;;;19.60;41.17
10606;BME280;5350;42.698;23.148;2022-10-16T10:55:52;94471.25;;;19.90;42.00
10606;BME280;5350;42.698;23.148;2022-10-16T10:58:35;94472.53;;;20.05;42.94
10606;BME280;5350;42.698;23.148;2022-10-16T11:01:08;94465.13;;;20.11;44.40
10606;BME280;5350;42.698;23.148;2022-10-16T11:03:57;94465.50;;;20.42;40.05
10606;BME280;5350;42.698;23.148;2022-10-16T11:06:30;94465.88;;;20.52;42.48
10606;BME280;5350;42.698;23.148;2022-10-16T11:09:08;94465.06;;;20.52;40.35
10606;BME280;5350;42.698;23.148;2022-10-16T11:11:40;94458.94;;;20.51;40.54
10606;BME280;5350;42.698;23.148;2022-10-16T11:14:14;94468.03;;;20.71;39.30
10606;BME280;5350;42.698;23.148;2022-10-16T11:16:47;94466.50;;;20.94;39.54
10606;BME280;5350;42.698;23.148;2022-10-16T11:19:24;94462.75;;;21.19;39.16
10606;BME280;5350;42.698;23.148;2022-10-16T11:21:59;94457.72;;;21.30;39.98
10606;BME280;5350;42.698;23.148;2022-10-16T11:24:36;94457.50;;;21.23;37.48
10606;BME280;5350;42.698;23.148;2022-10-16T11:27:08;94452.16;;;21.23;37.97
10606;BME280;5350;42.698;23.148;2022-10-16T11:29:41;94448.91;;;21.29;37.72
10606;BME280;5350;42.698;23.148;2022-10-16T11:32:19;94455.47;;;20.96;38.21
10606;BME280;5350;42.698;23.148;2022-10-16T11:34:50;94456.28;;;21.08;38.81
10606;BME280;5350;42.698;23.148;2022-10-16T11:37:21;94448.66;;;20.98;37.18
10606;BME280;5350;42.698;23.148;2022-10-16T11:39:52;94454.38;;;21.21;39.18
10606;BME280;5350;42.698;23.148;2022-10-16T11:42:27;94459.16;;;21.52;39.29
10606;BME280;5350;42.698;23.148;2022-10-16T11:45:00;94459.16;;;21.52;37.92
10606;BME280;5350;42.698;23.148;2022-10-16T11:47:33;94459.34;;;21.83;36.36
10606;BME280;5350;42.698;23.148;2022-10-16T11:50:02;94461.78;;;21.88;38.16
10606;BME280;5350;42.698;23.148;2022-10-16T11:52:36;94449.56;;;22.30;34.86
10606;BME280;5350;42.698;23.148;2022-10-16T11:55:14;94454.34;;;22.37;35.09
10606;BME280;5350;42.698;23.148;2022-10-16T11:57:47;94454.97;;;21.90;36.47
10606;BME280;5350;42.698;23.148;2022-10-16T12:00:21;94458.63;;;21.98;37.45
10606;BME280;5350;42.698;23.148;2022-10-16T12:02:57;94451.25;;;21.95;36.22
10606;BME280;5350;42.698;23.148;2022-10-16T12:05:35;94450.50;;;22.22;35.96
10606;BME280;5350;42.698;23.148;2022-10-16T12:08:09;94448.47;;;22.47;35.74
10606;BME280;5350;42.698;23.148;2022-10-16T12:10:39;94453.47;;;22.60;36.78
10606;BME280;5350;42.698;23.148;2022-10-16T12:13:28;94406.91;;;22.53;33.53
10606;BME280;5350;42.698;23.148;2022-10-16T12:16:05;94444.00;;;22.94;33.50
10606;BME280;5350;42.698;23.148;2022-10-16T12:18:32;94438.34;;;23.15;34.98
10606;BME280;5350;42.698;23.148;2022-10-16T12:20:59;94440.78;;;23.51;34.48
10606;BME280;5350;42.698;23.148;2022-10-16T12:23:31;94436.50;;;23.65;33.06
10606;BME280;5350;42.698;23.148;2022-10-16T12:26:00;94441.34;;;23.29;33.65
10606;BME280;5350;42.698;23.148;2022-10-16T12:28:29;94445.81;;;23.21;35.14
10606;BME280;5350;42.698;23.148;2022-10-16T12:30:57;94440.44;;;23.37;34.35
10606;BME280;5350;42.698;23.148;2022-10-16T12:33:27;94442.78;;;23.38;34.22
10606;BME280;5350;42.698;23.148;2022-10-16T12:35:54;94443.56;;;23.73;32.87
10606;BME280;5350;42.698;23.148;2022-10-16T12:38:33;94419.59;;;23.65;32.21
10606;BME280;5350;42.698;23.148;2022-10-16T12:41:26;94439.03;;;23.77;31.91
10606;BME280;5350;42.698;23.148;2022-10-16T12:43:54;94434.50;;;23.47;31.57
10606;BME280;5350;42.698;23.148;2022-10-16T12:46:35;94436.09;;;23.48;33.20
10606;BME280;5350;42.698;23.148;2022-10-16T12:49:22;94436.84;;;23.83;33.45
10606;BME280;5350;42.698;23.148;2022-10-16T12:51:51;94433.16;;;23.91;31.80
10606;BME280;5350;42.698;23.148;2022-10-16T12:54:22;94436.97;;;23.71;31.84
10606;BME280;5350;42.698;23.148;2022-10-16T12:57:03;94446.03;;;24.01;32.90
10606;BME280;5350;42.698;23.148;2022-10-16T12:59:42;94448.50;;;24.25;32.02
10606;BME280;5350;42.698;23.148;2022-10-16T13:02:39;94447.19;;;24.00;29.66
10606;BME280;5350;42.698;23.148;2022-10-16T13:05:20;94447.84;;;24.32;29.81
10606;BME280;5350;42.698;23.148;2022-10-16T13:07:57;94447.50;;;24.14;30.44
10606;BME280;5350;42.698;23.148;2022-10-16T13:10:32;94455.28;;;24.19;31.16
10606;BME280;5350;42.698;23.148;2022-10-16T13:13:23;94442.09;;;24.52;30.86
10606;BME280;5350;42.698;23.148;2022-10-16T13:16:07;94449.09;;;24.99;29.76
10606;BME280;5350;42.698;23.148;2022-10-16T13:18:45;94449.75;;;25.15;30.19
10606;BME280;5350;42.698;23.148;2022-10-16T13:21:20;94444.78;;;25.17;30.31
10606;BME280;5350;42.698;23.148;2022-10-16T13:24:00;94450.69;;;25.03;29.59
10606;BME280;5350;42.698;23.148;2022-10-16T13:26:36;94446.94;;;25.08;30.50
10606;BME280;5350;42.698;23.148;2022-10-16T13:29:07;94450.53;;;24.93;29.66
10606;BME280;5350;42.698;23.148;2022-10-16T13:31:37;94448.97;;;24.92;30.48
10606;BME280;5350;42.698;23.148;2022-10-16T13:34:05;94447.75;;;25.12;30.51
10606;BME280;5350;42.698;23.148;2022-10-16T13:36:42;94454.47;;;24.57;29.56
10606;BME280;5350;42.698;23.148;2022-10-16T13:39:12;94450.97;;;24.34;30.01
10606;BME280;5350;42.698;23.148;2022-10-16T13:41:40;94457.66;;;24.63;28.97
10606;BME280;5350;42.698;23.148;2022-10-16T13:44:13;94444.38;;;24.12;28.98
10606;BME280;5350;42.698;23.148;2022-10-16T13:46:41;94455.34;;;24.23;29.82
10606;BME280;5350;42.698;23.148;2022-10-16T13:49:13;94443.47;;;24.24;30.11
10606;BME280;5350;42.698;23.148;2022-10-16T13:51:40;94452.09;;;24.33;30.23
10606;BME280;5350;42.698;23.148;2022-10-16T13:54:09;94460.50;;;24.50;29.68
10606;BME280;5350;42.698;23.148;2022-10-16T13:56:36;94460.47;;;24.70;29.23